Terminal Aerodrome Forecast
Issued by NWS

Home | Current Version | Previous Version | Text Only | Print | Product List | Glossary On
Versions: 1 2 3 4 5 6 7 8 9 10 11 12 13 14
000
FTUS45 KABQ 241152
TAFTCC
TAF
KTCC 241152Z 2412/2512 25015KT P6SM SCT200
     FM241600 26026G28KT P6SM SKC
     FM241900 26033G45KT 6SM BLDU SKC
     FM250000 27020G30KT P6SM SKC
     FM250800 32013KT P6SM SKC=

USA.gov is the U.S. government's official web portal to all federal, state and local government web resources and services.